sensor_id;sensor_type;location;lat;lon;timestamp;P1;P2;P0
74428;PMS5003;62860;52.134;23.714;2022-10-16T00:04:09;6.8;6;4.8
74428;PMS5003;62860;52.134;23.714;2022-10-16T00:09:11;7.6;7;5.8
74428;PMS5003;62860;52.134;23.714;2022-10-16T00:14:04;7.4;6.4;5.2
74428;PMS5003;62860;52.134;23.714;2022-10-16T00:19:11;7.4;5.8;4.4
74428;PMS5003;62860;52.134;23.714;2022-10-16T00:23:39;8.4;6.8;4.8
74428;PMS5003;62860;52.134;23.714;2022-10-16T00:28:53;7.6;6.8;4.8
74428;PMS5003;62860;52.134;23.714;2022-10-16T00:33:39;8.8;8;5
74428;PMS5003;62860;52.134;23.714;2022-10-16T00:39:17;9.2;6.8;5
74428;PMS5003;62860;52.134;23.714;2022-10-16T00:44:52;11;8.2;5.6
74428;PMS5003;62860;52.134;23.714;2022-10-16T00:48:39;10.8;8;6.6
74428;PMS5003;62860;52.134;23.714;2022-10-16T00:54:02;9.6;8.2;7.6
74428;PMS5003;62860;52.134;23.714;2022-10-16T00:59:22;14.6;13.6;11
74428;PMS5003;62860;52.134;23.714;2022-10-16T01:04:19;15.4;15.4;13.6
74428;PMS5003;62860;52.134;23.714;2022-10-16T01:09:04;20.6;18.2;16
74428;PMS5003;62860;52.134;23.714;2022-10-16T01:14:21;33.6;31.6;27.4
74428;PMS5003;62860;52.134;23.714;2022-10-16T01:18:52;28.6;26;22.2
74428;PMS5003;62860;52.134;23.714;2022-10-16T01:23:43;30.4;29.8;24.6
74428;PMS5003;62860;52.134;23.714;2022-10-16T01:29:13;31.8;29.6;25.4
74428;PMS5003;62860;52.134;23.714;2022-10-16T01:34:06;31.6;30.4;25.4
74428;PMS5003;62860;52.134;23.714;2022-10-16T01:39:13;29.8;29.2;25.2
74428;PMS5003;62860;52.134;23.714;2022-10-16T01:44:16;31.6;29.2;24.6
74428;PMS5003;62860;52.134;23.714;2022-10-16T01:49:03;29.6;27.6;23.4
74428;PMS5003;62860;52.134;23.714;2022-10-16T01:54:21;18.6;17;14.4
74428;PMS5003;62860;52.134;23.714;2022-10-16T01:59:14;6.4;5;3.8
74428;PMS5003;62860;52.134;23.714;2022-10-16T02:03:40;8.4;5.6;4.6
74428;PMS5003;62860;52.134;23.714;2022-10-16T02:08:49;6.6;4.2;4
74428;PMS5003;62860;52.134;23.714;2022-10-16T02:13:46;8;5.2;3.6
74428;PMS5003;62860;52.134;23.714;2022-10-16T02:19:19;5.8;5.2;4.2
74428;PMS5003;62860;52.134;23.714;2022-10-16T02:24:00;8;5.8;4.2
74428;PMS5003;62860;52.134;23.714;2022-10-16T02:29:20;7.6;5.2;3.8
74428;PMS5003;62860;52.134;23.714;2022-10-16T02:34:09;5.6;5.6;5
74428;PMS5003;62860;52.134;23.714;2022-10-16T02:39:14;6.8;5.4;4.6
74428;PMS5003;62860;52.134;23.714;2022-10-16T02:44:01;4.6;4;3.4
74428;PMS5003;62860;52.134;23.714;2022-10-16T02:49:03;6;4.2;3
74428;PMS5003;62860;52.134;23.714;2022-10-16T02:54:03;6.4;4.8;3.6
74428;PMS5003;62860;52.134;23.714;2022-10-16T02:58:51;6.4;4.6;3
74428;PMS5003;62860;52.134;23.714;2022-10-16T03:03:39;6.2;5.8;4.8
74428;PMS5003;62860;52.134;23.714;2022-10-16T03:09:01;6;4.6;3.6
74428;PMS5003;62860;52.134;23.714;2022-10-16T03:14:25;6;5;4
74428;PMS5003;62860;52.134;23.714;2022-10-16T03:19:11;4.6;3.6;2.8
74428;PMS5003;62860;52.134;23.714;2022-10-16T03:24:01;5.2;4.8;3.4
74428;PMS5003;62860;52.134;23.714;2022-10-16T03:28:53;7.2;5.6;3.8
74428;PMS5003;62860;52.134;23.714;2022-10-16T03:34:25;7.4;5.8;4.2
74428;PMS5003;62860;52.134;23.714;2022-10-16T03:39:23;5.4;3.6;2.8
74428;PMS5003;62860;52.134;23.714;2022-10-16T03:44:03;6.6;4.6;3.6
74428;PMS5003;62860;52.134;23.714;2022-10-16T03:48:39;6.8;4.2;3
74428;PMS5003;62860;52.134;23.714;2022-10-16T03:53:47;6.8;5.4;3.8
74428;PMS5003;62860;52.134;23.714;2022-10-16T03:59:15;7.2;5.6;3.8
74428;PMS5003;62860;52.134;23.714;2022-10-16T04:03:53;7;5.6;4.2
74428;PMS5003;62860;52.134;23.714;2022-10-16T04:08:51;8;4.6;3.4
74428;PMS5003;62860;52.134;23.714;2022-10-16T04:14:13;6.6;4.4;3.6
74428;PMS5003;62860;52.134;23.714;2022-10-16T04:19:25;6;5;3.2
74428;PMS5003;62860;52.134;23.714;2022-10-16T04:24:16;6.2;5;3.6
74428;PMS5003;62860;52.134;23.714;2022-10-16T04:29:27;8.5;7.3;5
74428;PMS5003;62860;52.134;23.714;2022-10-16T04:34:27;8.8;7.4;4.8
74428;PMS5003;62860;52.134;23.714;2022-10-16T04:38:39;9.4;7.6;5
74428;PMS5003;62860;52.134;23.714;2022-10-16T04:43:53;8.8;7;5.2
74428;PMS5003;62860;52.134;23.714;2022-10-16T04:49:27;7.8;6.8;4.4
74428;PMS5003;62860;52.134;23.714;2022-10-16T04:54:25;12.4;8.8;6.8
74428;PMS5003;62860;52.134;23.714;2022-10-16T04:58:41;8.6;7.2;5.8
74428;PMS5003;62860;52.134;23.714;2022-10-16T05:04:15;8.6;7.8;5.8
74428;PMS5003;62860;52.134;23.714;2022-10-16T05:09:15;10.6;9.4;6.4
74428;PMS5003;62860;52.134;23.714;2022-10-16T05:13:39;10;9;6.2
74428;PMS5003;62860;52.134;23.714;2022-10-16T05:18:39;7.6;6.6;4.4
74428;PMS5003;62860;52.134;23.714;2022-10-16T05:24:15;9.8;7.6;5.2
74428;PMS5003;62860;52.134;23.714;2022-10-16T05:28:53;7;5.6;3.8
74428;PMS5003;62860;52.134;23.714;2022-10-16T05:33:39;8.5;6.5;5.3
74428;PMS5003;62860;52.134;23.714;2022-10-16T05:39:03;9.8;8.4;6.2
74428;PMS5003;62860;52.134;23.714;2022-10-16T05:44:05;8.8;6.2;5.2
74428;PMS5003;62860;52.134;23.714;2022-10-16T05:49:15;7.2;5.6;4.6
74428;PMS5003;62860;52.134;23.714;2022-10-16T05:54:03;8.8;7.6;5.8
74428;PMS5003;62860;52.134;23.714;2022-10-16T05:59:05;11.4;10;6
74428;PMS5003;62860;52.134;23.714;2022-10-16T06:04:27;8.8;7.6;5.8
74428;PMS5003;62860;52.134;23.714;2022-10-16T06:09:23;9.8;7.8;6.2
74428;PMS5003;62860;52.134;23.714;2022-10-16T06:13:39;8.8;7.8;5.8
74428;PMS5003;62860;52.134;23.714;2022-10-16T06:18:39;8.6;8;5.2
74428;PMS5003;62860;52.134;23.714;2022-10-16T06:23:54;9.2;8.2;5.6
74428;PMS5003;62860;52.134;23.714;2022-10-16T06:29:15;9.8;8.2;6.2
74428;PMS5003;62860;52.134;23.714;2022-10-16T06:34:03;9.6;7;4.8
74428;PMS5003;62860;52.134;23.714;2022-10-16T06:39:25;8.4;8.2;5.8
74428;PMS5003;62860;52.134;23.714;2022-10-16T06:44:15;10.6;8;5.8
74428;PMS5003;62860;52.134;23.714;2022-10-16T06:49:25;7;6.6;4.8
74428;PMS5003;62860;52.134;23.714;2022-10-16T06:54:11;8.8;6;4.8
74428;PMS5003;62860;52.134;23.714;2022-10-16T06:59:27;8.4;7.2;5.2
74428;PMS5003;62860;52.134;23.714;2022-10-16T07:04:27;9.4;7;5.4
74428;PMS5003;62860;52.134;23.714;2022-10-16T07:08:40;8.6;6.2;5
74428;PMS5003;62860;52.134;23.714;2022-10-16T07:14:02;7.4;6.6;4.8
74428;PMS5003;62860;52.134;23.714;2022-10-16T07:18:40;5.2;5;3.8
74428;PMS5003;62860;52.134;23.714;2022-10-16T07:24:25;9.4;6.8;5.2
74428;PMS5003;62860;52.134;23.714;2022-10-16T07:29:14;7.4;5.6;4.4
74428;PMS5003;62860;52.134;23.714;2022-10-16T07:34:25;8.6;7;5
74428;PMS5003;62860;52.134;23.714;2022-10-16T07:39:13;10.2;7.4;5.6
74428;PMS5003;62860;52.134;23.714;2022-10-16T07:44:15;12;8.2;5.8
74428;PMS5003;62860;52.134;23.714;2022-10-16T07:49:04;9.2;7.4;6
74428;PMS5003;62860;52.134;23.714;2022-10-16T07:54:15;6.5;6;4.3
74428;PMS5003;62860;52.134;23.714;2022-10-16T07:58:53;16.6;13.4;9.8
74428;PMS5003;62860;52.134;23.714;2022-10-16T08:03:55;9.2;7.8;6.4
74428;PMS5003;62860;52.134;23.714;2022-10-16T08:08:51;7.2;6.8;5.2
74428;PMS5003;62860;52.134;23.714;2022-10-16T08:14:25;8.6;6.8;5.4
74428;PMS5003;62860;52.134;23.714;2022-10-16T08:19:27;7.8;6.6;5
74428;PMS5003;62860;52.134;23.714;2022-10-16T08:24:05;8.8;7.2;5.2
74428;PMS5003;62860;52.134;23.714;2022-10-16T08:28:39;8.6;6.6;5
74428;PMS5003;62860;52.134;23.714;2022-10-16T08:34:27;7.2;5.4;4.4
74428;PMS5003;62860;52.134;23.714;2022-10-16T08:39:25;7.6;6.8;5.2
74428;PMS5003;62860;52.134;23.714;2022-10-16T08:44:07;8;7.2;5.2
74428;PMS5003;62860;52.134;23.714;2022-10-16T08:48:52;12;9.4;6.8
74428;PMS5003;62860;52.134;23.714;2022-10-16T08:54:12;7.6;6.6;5.2
74428;PMS5003;62860;52.134;23.714;2022-10-16T08:58:39;11.4;8.6;5.8
74428;PMS5003;62860;52.134;23.714;2022-10-16T09:03:45;9.2;8.4;6.4
74428;PMS5003;62860;52.134;23.714;2022-10-16T09:08:51;7.8;5.8;4.8
74428;PMS5003;62860;52.134;23.714;2022-10-16T09:14:23;7.6;6.4;4.6
74428;PMS5003;62860;52.134;23.714;2022-10-16T09:19:19;6.8;6.4;4.6
74428;PMS5003;62860;52.134;23.714;2022-10-16T09:24:09;7.4;6.4;5
74428;PMS5003;62860;52.134;23.714;2022-10-16T09:29:27;8.2;6.8;5.8
74428;PMS5003;62860;52.134;23.714;2022-10-16T09:34:20;10;7.4;6.2
74428;PMS5003;62860;52.134;23.714;2022-10-16T09:39:19;7.6;6.6;5.6
74428;PMS5003;62860;52.134;23.714;2022-10-16T09:43:54;7.6;5.8;5.2
74428;PMS5003;62860;52.134;23.714;2022-10-16T09:48:43;7.2;6;5
74428;PMS5003;62860;52.134;23.714;2022-10-16T09:54:29;9;6;4.8
74428;PMS5003;62860;52.134;23.714;2022-10-16T09:59:16;6.4;5;4.6
74428;PMS5003;62860;52.134;23.714;2022-10-16T10:04:36;7.2;6.6;5.4
74428;PMS5003;62860;52.134;23.714;2022-10-16T10:09:17;8.4;6.6;5.6
74428;PMS5003;62860;52.134;23.714;2022-10-16T10:14:14;9.8;8.2;6.6
74428;PMS5003;62860;52.134;23.714;2022-10-16T10:19:09;7;6.6;5
74428;PMS5003;62860;52.134;23.714;2022-10-16T10:23:41;7.8;6.8;5.4
74428;PMS5003;62860;52.134;23.714;2022-10-16T10:28:55;10.4;8.2;6.6
74428;PMS5003;62860;52.134;23.714;2022-10-16T10:33:55;9.6;6.8;5.8
74428;PMS5003;62860;52.134;23.714;2022-10-16T10:38:41;9.2;7.4;5.6
74428;PMS5003;62860;52.134;23.714;2022-10-16T10:44:35;7.6;6.8;5.2
74428;PMS5003;62860;52.134;23.714;2022-10-16T10:49:33;7.8;6.6;5.6
74428;PMS5003;62860;52.134;23.714;2022-10-16T10:53:41;10;9;8.6
74428;PMS5003;62860;52.134;23.714;2022-10-16T10:59:14;7.6;6.6;6.4
74428;PMS5003;62860;52.134;23.714;2022-10-16T11:04:34;7.8;6.4;5.6
74428;PMS5003;62860;52.134;23.714;2022-10-16T11:09:28;7.8;6.8;5.6
74428;PMS5003;62860;52.134;23.714;2022-10-16T11:14:04;9.6;8.8;7.2
74428;PMS5003;62860;52.134;23.714;2022-10-16T11:18:42;7.4;6.6;5.4
74428;PMS5003;62860;52.134;23.714;2022-10-16T11:23:55;7;5.8;4.6
74428;PMS5003;62860;52.134;23.714;2022-10-16T11:28:56;6;5;4
74428;PMS5003;62860;52.134;23.714;2022-10-16T11:34:05;6.2;5.8;4.6
74428;PMS5003;62860;52.134;23.714;2022-10-16T11:38:58;6.8;5;4
74428;PMS5003;62860;52.134;23.714;2022-10-16T11:44:20;6.4;5.4;4.6
74428;PMS5003;62860;52.134;23.714;2022-10-16T11:49:18;6;4.2;3.8
74428;PMS5003;62860;52.134;23.714;2022-10-16T11:54:08;6.5;5.5;4.3
74428;PMS5003;62860;52.134;23.714;2022-10-16T11:59:30;5.6;5.2;4
74428;PMS5003;62860;52.134;23.714;2022-10-16T12:04:30;6.2;5.2;3.8
74428;PMS5003;62860;52.134;23.714;2022-10-16T12:09:26;5.4;5;4
74428;PMS5003;62860;52.134;23.714;2022-10-16T12:13:40;6.4;4.8;4
74428;PMS5003;62860;52.134;23.714;2022-10-16T12:18:40;5.2;5;4.4
74428;PMS5003;62860;52.134;23.714;2022-10-16T12:24:02;6.8;5.4;4.6
74428;PMS5003;62860;52.134;23.714;2022-10-16T12:29:32;7;5.6;4.4
74428;PMS5003;62860;52.134;23.714;2022-10-16T12:34:14;6;5.8;5
74428;PMS5003;62860;52.134;23.714;2022-10-16T12:39:20;7.4;6.6;5
74428;PMS5003;62860;52.134;23.714;2022-10-16T12:44:21;8.2;6.6;5.2
74428;PMS5003;62860;52.134;23.714;2022-10-16T12:49:04;7.4;6;4.4
74428;PMS5003;62860;52.134;23.714;2022-10-16T12:53:40;6.6;6.2;5
74428;PMS5003;62860;52.134;23.714;2022-10-16T12:58:59;6.6;5.8;4.4
74428;PMS5003;62860;52.134;23.714;2022-10-16T13:04:04;6.8;6.4;4.8
74428;PMS5003;62860;52.134;23.714;2022-10-16T13:09:07;5.4;4.8;4
74428;PMS5003;62860;52.134;23.714;2022-10-16T13:14:04;5.6;4.6;3.8
74428;PMS5003;62860;52.134;23.714;2022-10-16T13:19:28;6.4;5.2;4
74428;PMS5003;62860;52.134;23.714;2022-10-16T13:24:19;7;5.2;4.6
74428;PMS5003;62860;52.134;23.714;2022-10-16T13:28:40;5;4.4;3.8
74428;PMS5003;62860;52.134;23.714;2022-10-16T13:34:06;6;4.2;3.6
74428;PMS5003;62860;52.134;23.714;2022-10-16T13:39:30;6;5.6;5
74428;PMS5003;62860;52.134;23.714;2022-10-16T13:44:31;6;5;3.6
74428;PMS5003;62860;52.134;23.714;2022-10-16T13:48:40;6.4;6.2;5
74428;PMS5003;62860;52.134;23.714;2022-10-16T13:53:40;8;5.4;4.4
74428;PMS5003;62860;52.134;23.714;2022-10-16T13:58:40;4.6;4.6;4
74428;PMS5003;62860;52.134;23.714;2022-10-16T14:04:12;7.4;6.2;5
74428;PMS5003;62860;52.134;23.714;2022-10-16T14:09:00;8.6;7;5.4
74428;PMS5003;62860;52.134;23.714;2022-10-16T14:14:04;9.4;7.4;6.6
74428;PMS5003;62860;52.134;23.714;2022-10-16T14:19:13;8.2;7.6;5.8
74428;PMS5003;62860;52.134;23.714;2022-10-16T14:24:26;9.6;8.4;7.2
74428;PMS5003;62860;52.134;23.714;2022-10-16T14:29:12;15.6;14;11.2
74428;PMS5003;62860;52.134;23.714;2022-10-16T14:34:29;11.8;9.4;7.8
74428;PMS5003;62860;52.134;23.714;2022-10-16T14:39:30;9;7.4;4.6
74428;PMS5003;62860;52.134;23.714;2022-10-16T14:43:40;9.4;6.6;5.6
74428;PMS5003;62860;52.134;23.714;2022-10-16T14:48:54;8;5.8;4.5
74428;PMS5003;62860;52.134;23.714;2022-10-16T14:54:28;6.7;5;4.5
74428;PMS5003;62860;52.134;23.714;2022-10-16T14:59:28;8.2;7.2;6
74428;PMS5003;62860;52.134;23.714;2022-10-16T15:04:16;31.6;26;16.8
74428;PMS5003;62860;52.134;23.714;2022-10-16T15:09:16;12.6;11;8.8
74428;PMS5003;62860;52.134;23.714;2022-10-16T15:14:16;10;8.3;6.3
74428;PMS5003;62860;52.134;23.714;2022-10-16T15:19:06;7;6;5.6
74428;PMS5003;62860;52.134;23.714;2022-10-16T15:24:08;5.8;5;3.8
74428;PMS5003;62860;52.134;23.714;2022-10-16T15:29:16;7;6;4.8
74428;PMS5003;62860;52.134;23.714;2022-10-16T15:34:08;7.6;6.8;5.8
74428;PMS5003;62860;52.134;23.714;2022-10-16T15:38:56;12.8;11.2;8.6
74428;PMS5003;62860;52.134;23.714;2022-10-16T15:43:56;9.8;8.2;6
74428;PMS5003;62860;52.134;23.714;2022-10-16T15:49:30;10;8.8;6.2
74428;PMS5003;62860;52.134;23.714;2022-10-16T15:54:18;8.6;7;5
74428;PMS5003;62860;52.134;23.714;2022-10-16T15:59:06;7.8;6.8;5.4
74428;PMS5003;62860;52.134;23.714;2022-10-16T16:04:08;7.6;7;5.4
74428;PMS5003;62860;52.134;23.714;2022-10-16T16:09:30;8.2;6.8;5.2
74428;PMS5003;62860;52.134;23.714;2022-10-16T16:14:28;6;5.2;4.2
74428;PMS5003;62860;52.134;23.714;2022-10-16T16:19:06;6.6;5.2;4
74428;PMS5003;62860;52.134;23.714;2022-10-16T16:23:48;6.2;5;4
74428;PMS5003;62860;52.134;23.714;2022-10-16T16:28:54;7.6;6;5
74428;PMS5003;62860;52.134;23.714;2022-10-16T16:34:06;6;4.2;3.4
74428;PMS5003;62860;52.134;23.714;2022-10-16T16:39:04;8.5;5.5;5
74428;PMS5003;62860;52.134;23.714;2022-10-16T16:44:02;14;12;9
74428;PMS5003;62860;52.134;23.714;2022-10-16T16:49:20;14;12;9
74428;PMS5003;62860;52.134;23.714;2022-10-16T16:54:06;35;28.8;18.7
74428;PMS5003;62860;52.134;23.714;2022-10-16T16:59:19;35;28.8;18.7
74428;PMS5003;62860;52.134;23.714;2022-10-16T17:04:28;12.2;10;7.7
74428;PMS5003;62860;52.134;23.714;2022-10-16T17:09:16;34;25;15
74428;PMS5003;62860;52.134;23.714;2022-10-16T17:13:40;23;15;10
74428;PMS5003;62860;52.134;23.714;2022-10-16T20:33:54;23;15;10
74428;PMS5003;62860;52.134;23.714;2022-10-16T20:38:50;15.3;12.3;8.5
74428;PMS5003;62860;52.134;23.714;2022-10-16T20:43:54;3.8;2.6;2.4
74428;PMS5003;62860;52.134;23.714;2022-10-16T20:49:32;2.8;2.2;1.8
74428;PMS5003;62860;52.134;23.714;2022-10-16T20:54:20;2.8;2.6;1.8
74428;PMS5003;62860;52.134;23.714;2022-10-16T20:59:06;2.6;2.2;1.8
74428;PMS5003;62860;52.134;23.714;2022-10-16T21:03:51;2.6;2;1.8
74428;PMS5003;62860;52.134;23.714;2022-10-16T21:09:30;2.8;2;1.8
74428;PMS5003;62860;52.134;23.714;2022-10-16T21:14:32;3;2.6;2
74428;PMS5003;62860;52.134;23.714;2022-10-16T21:19:32;3;2.6;2.2
74428;PMS5003;62860;52.134;23.714;2022-10-16T21:24:04;4;2.6;2.2
74428;PMS5003;62860;52.134;23.714;2022-10-16T21:28:54;3.4;2.6;2
74428;PMS5003;62860;52.134;23.714;2022-10-16T21:33:54;3;2.4;1.8
74428;PMS5003;62860;52.134;23.714;2022-10-16T21:39:16;3.4;1.6;1.6
74428;PMS5003;62860;52.134;23.714;2022-10-16T21:44:04;3.4;3;2.2
74428;PMS5003;62860;52.134;23.714;2022-10-16T21:49:08;2.4;2.2;1.6
74428;PMS5003;62860;52.134;23.714;2022-10-16T21:54:09;4.8;4.2;2.4
74428;PMS5003;62860;52.134;23.714;2022-10-16T21:59:32;4.4;2.6;2.2
74428;PMS5003;62860;52.134;23.714;2022-10-16T22:04:08;5.2;4.6;3.6
74428;PMS5003;62860;52.134;23.714;2022-10-16T22:09:30;4;3;2.6
74428;PMS5003;62860;52.134;23.714;2022-10-16T22:14:30;6;4.2;3.2
74428;PMS5003;62860;52.134;23.714;2022-10-16T22:18:56;4.4;4;3.4
74428;PMS5003;62860;52.134;23.714;2022-10-16T22:23:52;4.4;3.8;3
74428;PMS5003;62860;52.134;23.714;2022-10-16T22:29:18;4.6;3.4;2.6
74428;PMS5003;62860;52.134;23.714;2022-10-16T22:34:30;3.5;2.5;2.3
74428;PMS5003;62860;52.134;23.714;2022-10-16T22:39:12;3.2;3;2.2
74428;PMS5003;62860;52.134;23.714;2022-10-16T22:44:16;3.4;3;2.4
74428;PMS5003;62860;52.134;23.714;2022-10-16T22:49:16;3.4;2.6;2.2
74428;PMS5003;62860;52.134;23.714;2022-10-16T22:54:06;5.2;4.8;3
74428;PMS5003;62860;52.134;23.714;2022-10-16T22:59:04;3.8;2.8;2.2
74428;PMS5003;62860;52.134;23.714;2022-10-16T23:03:58;3.4;2.6;2.2
74428;PMS5003;62860;52.134;23.714;2022-10-16T23:08:54;4;3.2;2.8
74428;PMS5003;62860;52.134;23.714;2022-10-16T23:13:54;4;4;3
74428;PMS5003;62860;52.134;23.714;2022-10-16T23:18:40;3.4;3;2.4
74428;PMS5003;62860;52.134;23.714;2022-10-16T23:24:22;2.8;2.8;2.6
74428;PMS5003;62860;52.134;23.714;2022-10-16T23:29:16;4.6;3.6;2.4
74428;PMS5003;62860;52.134;23.714;2022-10-16T23:34:04;5.2;3.8;3.6
74428;PMS5003;62860;52.134;23.714;2022-10-16T23:38:54;5.2;3.8;3.6
74428;PMS5003;62860;52.134;23.714;2022-10-16T23:44:22;6.2;5.6;4.8
74428;PMS5003;62860;52.134;23.714;2022-10-16T23:49:24;10.6;9.6;9.2
74428;PMS5003;62860;52.134;23.714;2022-10-16T23:53:54;7;7;6.8
74428;PMS5003;62860;52.134;23.714;2022-10-16T23:58:58;4.2;2.8;2.2
